createdAt,value
2019-01-31T00:00:00.430Z,3.50
2019-01-31T00:02:39.575Z,3.50
2019-01-31T00:05:21.853Z,3.40
2019-01-31T00:08:00.830Z,3.40
2019-01-31T00:10:47.199Z,3.30
2019-01-31T00:13:34.980Z,3.30
2019-01-31T00:16:30.360Z,3.30
2019-01-31T00:19:21.082Z,3.20
2019-01-31T00:21:50.939Z,3.20
2019-01-31T00:24:20.783Z,3.20
2019-01-31T00:27:03.319Z,3.20
2019-01-31T00:29:35.931Z,3.10
2019-01-31T00:32:20.799Z,3.10
2019-01-31T00:34:56.777Z,3.10
2019-01-31T00:37:44.456Z,3.10
2019-01-31T00:40:17.341Z,3.00
2019-01-31T00:42:47.230Z,3.00
2019-01-31T00:45:33.934Z,3.00
2019-01-31T00:48:12.381Z,3.00
2019-01-31T00:51:06.076Z,3.00
2019-01-31T00:53:56.756Z,3.00
2019-01-31T00:56:49.551Z,3.00
2019-01-31T00:59:25.012Z,3.00
2019-01-31T01:02:06.942Z,3.00
2019-01-31T01:04:52.150Z,3.00
2019-01-31T01:07:24.563Z,3.00
2019-01-31T01:10:06.892Z,3.00
2019-01-31T01:12:48.867Z,3.00
2019-01-31T01:15:33.685Z,3.00
2019-01-31T01:18:21.450Z,3.00
2019-01-31T01:21:12.692Z,3.00
2019-01-31T01:23:42.545Z,3.00
2019-01-31T01:26:33.395Z,3.00
2019-01-31T01:29:09.276Z,3.00
2019-01-31T01:31:54.255Z,3.00
2019-01-31T01:34:46.743Z,2.90
2019-01-31T01:37:25.856Z,2.90
2019-01-31T01:39:56.023Z,2.90
2019-01-31T01:42:35.010Z,2.90
2019-01-31T01:45:19.760Z,2.90
2019-01-31T01:47:53.063Z,2.90
2019-01-31T01:50:23.259Z,2.80
2019-01-31T01:53:08.841Z,2.80
2019-01-31T01:55:57.470Z,2.80
2019-01-31T01:58:33.635Z,2.80
2019-01-31T02:01:15.032Z,2.70
2019-01-31T02:03:57.433Z,2.70
2019-01-31T02:06:33.400Z,2.60
2019-01-31T02:09:29.741Z,2.60
2019-01-31T02:12:07.276Z,2.60
2019-01-31T02:15:10.852Z,2.60
2019-01-31T02:17:46.731Z,2.60
2019-01-31T02:20:42.274Z,2.60
2019-01-31T02:23:15.198Z,2.50
2019-01-31T02:25:45.476Z,2.60
2019-01-31T02:28:21.296Z,2.60
2019-01-31T02:31:05.803Z,2.60
2019-01-31T02:33:38.651Z,2.60
2019-01-31T02:36:11.500Z,2.70
2019-01-31T02:39:01.639Z,2.70
2019-01-31T02:41:46.447Z,2.70
2019-01-31T02:44:34.084Z,2.70
2019-01-31T02:47:20.579Z,2.70
2019-01-31T02:49:50.432Z,2.70
2019-01-31T02:52:40.133Z,2.80
2019-01-31T02:55:36.900Z,2.80
2019-01-31T02:58:12.779Z,2.80
2019-01-31T03:01:00.580Z,2.70
2019-01-31T03:03:33.745Z,2.70
2019-01-31T03:06:18.764Z,2.80
2019-01-31T03:08:51.738Z,2.70
2019-01-31T03:11:24.891Z,2.70
2019-01-31T03:14:10.051Z,2.70
2019-01-31T03:16:44.052Z,2.70
2019-01-31T03:19:28.539Z,2.70
2019-01-31T03:22:18.612Z,2.70
2019-01-31T03:25:06.823Z,2.60
2019-01-31T03:27:36.692Z,2.50
2019-01-31T03:30:30.797Z,2.50
2019-01-31T03:33:03.796Z,2.50
2019-01-31T03:35:39.832Z,2.40
2019-01-31T03:38:18.683Z,2.40
2019-01-31T03:40:51.359Z,2.40
2019-01-31T03:43:24.487Z,2.30
2019-01-31T03:46:03.444Z,2.30
2019-01-31T03:48:33.284Z,2.30
2019-01-31T03:51:23.352Z,2.30
2019-01-31T03:54:15.239Z,2.20
2019-01-31T03:57:00.313Z,2.20
2019-01-31T03:59:29.509Z,2.20
2019-01-31T04:02:11.383Z,2.10
2019-01-31T04:04:43.745Z,2.10
2019-01-31T04:07:09.791Z,2.10
2019-01-31T04:09:35.939Z,2.10
2019-01-31T04:12:01.980Z,2.10
2019-01-31T04:14:28.040Z,2.10
2019-01-31T04:16:54.088Z,2.10
2019-01-31T04:19:20.118Z,2.10
2019-01-31T04:21:46.180Z,2.10
2019-01-31T04:24:12.576Z,2.00
2019-01-31T04:26:38.620Z,2.00
2019-01-31T04:29:04.680Z,2.00
2019-01-31T04:31:30.729Z,2.00
2019-01-31T04:33:57.077Z,2.00
2019-01-31T04:36:23.399Z,2.00
2019-01-31T04:38:49.436Z,1.90
2019-01-31T04:41:15.968Z,1.90
2019-01-31T04:43:42.292Z,1.90
2019-01-31T04:46:08.355Z,1.90
2019-01-31T04:48:34.405Z,1.90
2019-01-31T04:51:00.435Z,1.80
2019-01-31T04:53:26.515Z,1.80
2019-01-31T04:55:52.555Z,1.80
2019-01-31T04:58:18.615Z,1.80
2019-01-31T05:00:44.662Z,1.70
2019-01-31T05:03:11.004Z,1.70
2019-01-31T05:05:37.041Z,1.70
2019-01-31T05:08:03.204Z,1.70
2019-01-31T05:10:29.347Z,1.60
2019-01-31T05:12:55.430Z,1.60
2019-01-31T05:15:41.424Z,1.60
2019-01-31T05:18:07.472Z,1.60
2019-01-31T05:20:33.541Z,1.60
2019-01-31T05:22:59.679Z,1.50
2019-01-31T05:25:25.790Z,1.50
2019-01-31T05:27:51.841Z,1.50
2019-01-31T05:30:17.887Z,1.40
2019-01-31T05:32:44.162Z,1.50
2019-01-31T05:35:10.604Z,1.50
2019-01-31T05:37:36.639Z,1.40
2019-01-31T05:40:05.593Z,1.40
2019-01-31T05:42:31.631Z,1.40
2019-01-31T05:44:57.960Z,1.40
2019-01-31T05:47:24.005Z,1.30
2019-01-31T05:49:50.313Z,1.30
2019-01-31T05:52:16.352Z,1.30
2019-01-31T05:54:42.417Z,1.30
2019-01-31T05:57:08.456Z,1.20
2019-01-31T05:59:34.514Z,1.20
2019-01-31T06:02:00.543Z,1.20
2019-01-31T06:04:26.604Z,1.10
2019-01-31T06:06:52.661Z,1.10
2019-01-31T06:09:18.695Z,1.10
2019-01-31T06:11:44.771Z,1.10
2019-01-31T06:14:10.824Z,1.00
2019-01-31T06:16:36.859Z,1.00
2019-01-31T06:19:02.915Z,1.00
2019-01-31T06:21:29.001Z,0.90
2019-01-31T06:23:55.100Z,0.90
2019-01-31T06:26:21.135Z,0.90
2019-01-31T06:28:47.197Z,0.90
2019-01-31T06:31:13.521Z,0.90
2019-01-31T06:33:39.560Z,0.90
2019-01-31T06:36:05.619Z,0.90
2019-01-31T06:38:31.784Z,0.90
2019-01-31T06:40:58.223Z,1.00
2019-01-31T06:43:24.305Z,1.00
2019-01-31T06:45:50.504Z,1.00
2019-01-31T06:48:16.663Z,1.10
2019-01-31T06:50:42.724Z,1.10
2019-01-31T06:53:09.056Z,1.10
2019-01-31T06:55:35.101Z,1.10
2019-01-31T06:58:01.164Z,1.10
2019-01-31T07:00:27.203Z,1.10
2019-01-31T07:02:53.243Z,1.10
2019-01-31T07:05:19.580Z,1.10
2019-01-31T07:07:45.719Z,1.20
2019-01-31T07:10:15.371Z,1.20
2019-01-31T07:12:41.440Z,1.20
2019-01-31T07:15:09.485Z,1.20
2019-01-31T07:17:35.524Z,1.20
2019-01-31T07:20:01.600Z,1.20
2019-01-31T07:22:28.094Z,1.20
2019-01-31T07:24:54.131Z,1.30
2019-01-31T07:27:20.198Z,1.30
2019-01-31T07:29:46.244Z,1.30
2019-01-31T07:32:12.284Z,1.30
2019-01-31T07:34:38.375Z,1.40
2019-01-31T07:37:04.412Z,1.50
2019-01-31T07:39:30.455Z,1.50
2019-01-31T07:41:56.498Z,1.50
2019-01-31T07:44:22.546Z,1.50
2019-01-31T07:46:48.605Z,1.60
2019-01-31T07:49:15.064Z,1.70
2019-01-31T07:51:41.101Z,1.70
2019-01-31T07:54:07.164Z,1.70
2019-01-31T07:56:33.539Z,1.80
2019-01-31T07:58:59.575Z,1.80
2019-01-31T08:01:25.629Z,1.80
2019-01-31T08:04:01.991Z,1.80
2019-01-31T08:06:19.612Z,1.90
2019-01-31T08:08:45.661Z,1.90
2019-01-31T08:11:11.710Z,1.90
2019-01-31T08:13:37.751Z,1.90
2019-01-31T08:16:03.800Z,2.00
2019-01-31T08:18:29.852Z,2.00
2019-01-31T08:20:55.911Z,2.00
2019-01-31T08:23:22.116Z,2.00
2019-01-31T08:25:48.510Z,2.10
2019-01-31T08:28:15.059Z,2.10
2019-01-31T08:30:42.839Z,2.10
2019-01-31T08:33:09.670Z,2.20
2019-01-31T08:35:35.818Z,2.10
2019-01-31T08:38:01.857Z,2.20
2019-01-31T08:40:28.559Z,2.20
2019-01-31T08:42:54.862Z,2.20
2019-01-31T08:45:21.609Z,2.30
2019-01-31T08:47:47.940Z,2.30
2019-01-31T08:50:27.603Z,2.40
2019-01-31T08:52:53.908Z,2.40
2019-01-31T08:55:19.963Z,2.50
2019-01-31T08:57:47.573Z,2.60
2019-01-31T09:00:25.908Z,2.60
2019-01-31T09:02:52.444Z,2.70
2019-01-31T09:05:18.874Z,2.70
2019-01-31T09:07:45.234Z,2.80
2019-01-31T09:10:17.575Z,2.80
2019-01-31T09:12:43.873Z,2.80
2019-01-31T09:15:12.826Z,2.90
2019-01-31T09:17:39.250Z,2.90
2019-01-31T09:20:09.370Z,2.90
2019-01-31T09:22:36.907Z,3.00
2019-01-31T09:25:23.705Z,3.00
2019-01-31T09:27:56.375Z,3.00
2019-01-31T09:30:32.017Z,3.00
2019-01-31T09:33:18.502Z,3.10
2019-01-31T09:35:57.887Z,3.10
2019-01-31T09:38:44.902Z,3.10
2019-01-31T09:41:42.325Z,3.10
2019-01-31T09:44:33.882Z,3.10
2019-01-31T09:47:33.031Z,3.10
2019-01-31T09:50:11.923Z,3.10
2019-01-31T09:52:57.456Z,3.10
2019-01-31T09:55:56.374Z,3.10
2019-01-31T09:58:32.005Z,3.10
2019-01-31T10:01:36.726Z,3.00
2019-01-31T10:04:09.550Z,3.00
2019-01-31T10:06:45.275Z,3.00
2019-01-31T10:09:29.780Z,2.90
2019-01-31T10:12:38.225Z,2.90
2019-01-31T10:15:13.793Z,2.90
2019-01-31T10:18:04.022Z,2.90
2019-01-31T10:20:52.361Z,2.80
2019-01-31T10:23:37.720Z,2.80
2019-01-31T10:26:10.919Z,2.80
2019-01-31T10:28:52.333Z,2.80
2019-01-31T10:31:31.081Z,2.80
2019-01-31T10:34:16.567Z,2.80
2019-01-31T10:36:52.142Z,2.80
2019-01-31T10:39:25.151Z,2.80
2019-01-31T10:42:10.659Z,2.80
2019-01-31T10:44:46.480Z,2.90
2019-01-31T10:47:28.465Z,2.90
2019-01-31T10:50:01.546Z,3.00
2019-01-31T10:52:37.896Z,3.00
2019-01-31T10:55:10.842Z,3.10
2019-01-31T10:57:49.854Z,3.10
2019-01-31T11:00:26.078Z,3.20
2019-01-31T11:03:13.019Z,3.30
2019-01-31T11:05:49.270Z,3.30
2019-01-31T11:08:21.855Z,3.40
2019-01-31T11:10:54.962Z,3.50
2019-01-31T11:13:30.940Z,3.50
2019-01-31T11:16:13.518Z,3.50
2019-01-31T11:18:46.361Z,3.50
2019-01-31T11:21:36.717Z,3.50
2019-01-31T11:24:34.664Z,3.50
2019-01-31T11:27:21.299Z,3.60
2019-01-31T11:30:03.567Z,3.60
2019-01-31T11:32:51.356Z,3.60
2019-01-31T11:35:33.345Z,3.60
2019-01-31T11:38:06.274Z,3.60
2019-01-31T11:40:36.393Z,3.60
2019-01-31T11:43:18.596Z,3.60
2019-01-31T11:45:57.940Z,3.60
2019-01-31T11:48:33.656Z,3.70
2019-01-31T11:51:20.416Z,3.70
2019-01-31T11:54:10.477Z,3.70
2019-01-31T11:56:43.507Z,3.70
2019-01-31T11:59:11.728Z,3.70
2019-01-31T12:01:38.580Z,3.80
2019-01-31T12:04:06.241Z,3.80
2019-01-31T12:06:32.434Z,3.80
2019-01-31T12:08:58.582Z,3.90
2019-01-31T12:11:25.028Z,3.90
2019-01-31T12:13:51.380Z,3.90
2019-01-31T12:16:17.658Z,4.00
2019-01-31T12:18:44.064Z,4.00
2019-01-31T12:21:10.451Z,4.00
2019-01-31T12:23:36.693Z,4.00
2019-01-31T12:26:03.216Z,4.10
2019-01-31T12:28:29.269Z,4.10
2019-01-31T12:30:55.311Z,4.20
2019-01-31T12:33:21.700Z,4.20
2019-01-31T12:35:48.022Z,4.30
2019-01-31T12:38:14.577Z,4.40
2019-01-31T12:40:41.216Z,4.40
2019-01-31T12:43:07.873Z,4.40
2019-01-31T12:45:33.956Z,4.40
2019-01-31T12:48:00.356Z,4.40
2019-01-31T12:50:26.831Z,4.40
2019-01-31T12:52:52.866Z,4.50
2019-01-31T12:55:19.299Z,4.50
2019-01-31T12:57:46.038Z,4.50
2019-01-31T13:00:21.477Z,4.50
2019-01-31T13:02:48.330Z,4.50
2019-01-31T13:05:14.751Z,4.50
2019-01-31T13:07:41.091Z,4.50
2019-01-31T13:10:09.353Z,4.40
2019-01-31T13:12:35.699Z,4.40
2019-01-31T13:15:01.844Z,4.40
2019-01-31T13:17:28.195Z,4.40
2019-01-31T13:19:54.239Z,4.40
2019-01-31T13:22:20.276Z,4.50
2019-01-31T13:24:46.676Z,4.50
2019-01-31T13:27:12.823Z,4.50
2019-01-31T13:29:38.883Z,4.50
2019-01-31T13:32:05.578Z,4.50
2019-01-31T13:34:31.624Z,4.60
2019-01-31T13:36:58.020Z,4.60
2019-01-31T13:39:24.271Z,4.60
2019-01-31T13:41:50.314Z,4.70
2019-01-31T13:44:16.467Z,4.70
2019-01-31T13:46:42.716Z,4.70
2019-01-31T13:49:08.755Z,4.70
2019-01-31T13:51:34.813Z,4.70
2019-01-31T13:54:01.064Z,4.70
2019-01-31T13:56:27.115Z,4.70
2019-01-31T13:58:53.171Z,4.70
2019-01-31T14:01:19.266Z,4.80
2019-01-31T14:03:45.307Z,4.70
2019-01-31T14:06:11.367Z,4.70
2019-01-31T14:08:37.411Z,4.70
2019-01-31T14:11:04.183Z,4.70
2019-01-31T14:13:30.253Z,4.70
2019-01-31T14:15:56.319Z,4.70
2019-01-31T14:18:22.975Z,4.70
2019-01-31T14:20:49.039Z,4.70
2019-01-31T14:23:15.077Z,4.70
2019-01-31T14:25:41.425Z,4.70
2019-01-31T14:28:07.776Z,4.70
2019-01-31T14:30:36.368Z,4.70
2019-01-31T14:33:04.213Z,4.70
2019-01-31T14:35:30.305Z,4.70
2019-01-31T14:37:56.551Z,4.70
2019-01-31T14:40:23.215Z,4.70
2019-01-31T14:42:49.861Z,4.60
2019-01-31T14:45:16.900Z,4.60
2019-01-31T14:47:42.949Z,4.60
2019-01-31T14:50:15.628Z,4.60
2019-01-31T14:52:41.671Z,4.60
2019-01-31T14:55:09.529Z,4.60
2019-01-31T14:57:36.031Z,4.50
2019-01-31T15:00:08.793Z,4.50
2019-01-31T15:02:35.140Z,4.50
2019-01-31T15:05:01.205Z,4.40
2019-01-31T15:07:27.240Z,4.40
2019-01-31T15:09:53.275Z,4.40
2019-01-31T15:12:19.324Z,4.30
2019-01-31T15:14:45.363Z,4.30
2019-01-31T15:17:11.416Z,4.30
2019-01-31T15:19:37.456Z,4.30
2019-01-31T15:22:03.709Z,4.20
2019-01-31T15:24:29.751Z,4.20
2019-01-31T15:26:55.784Z,4.20
2019-01-31T15:29:21.842Z,4.20
2019-01-31T15:31:47.879Z,4.20
2019-01-31T15:34:13.964Z,4.20
2019-01-31T15:36:40.283Z,4.20
2019-01-31T15:39:06.841Z,4.20
2019-01-31T15:41:32.884Z,4.20
2019-01-31T15:43:58.936Z,4.20
2019-01-31T15:46:25.333Z,4.20
2019-01-31T15:48:51.487Z,4.20
2019-01-31T15:51:17.539Z,4.20
2019-01-31T15:53:43.607Z,4.10
2019-01-31T15:56:10.044Z,4.10
2019-01-31T15:58:36.302Z,4.10
2019-01-31T16:01:03.980Z,4.10
2019-01-31T16:03:30.032Z,4.00
2019-01-31T16:05:56.173Z,4.00
2019-01-31T16:08:22.232Z,4.00
2019-01-31T16:10:48.408Z,3.90
2019-01-31T16:13:14.722Z,3.90
2019-01-31T16:15:41.214Z,3.90
2019-01-31T16:18:09.021Z,3.90
2019-01-31T16:20:35.060Z,3.90
2019-01-31T16:23:01.315Z,3.80
2019-01-31T16:25:27.368Z,3.80
2019-01-31T16:27:53.893Z,3.80
2019-01-31T16:30:20.383Z,3.70
2019-01-31T16:32:46.562Z,3.70
2019-01-31T16:35:18.404Z,3.60
2019-01-31T16:37:45.201Z,3.60
2019-01-31T16:40:13.554Z,3.50
2019-01-31T16:42:39.796Z,3.40
2019-01-31T16:45:09.313Z,3.40
2019-01-31T16:47:35.458Z,3.40
2019-01-31T16:50:01.995Z,3.30
2019-01-31T16:52:28.050Z,3.30
2019-01-31T16:54:54.075Z,3.20
2019-01-31T16:57:20.115Z,3.20
2019-01-31T16:59:46.184Z,3.20
2019-01-31T17:02:12.229Z,3.10
2019-01-31T17:04:38.287Z,3.10
2019-01-31T17:07:04.543Z,3.00
2019-01-31T17:09:30.592Z,3.00
2019-01-31T17:11:56.896Z,3.00
2019-01-31T17:14:23.060Z,3.00
2019-01-31T17:16:49.095Z,3.00
2019-01-31T17:19:15.147Z,3.00
2019-01-31T17:21:41.209Z,3.00
2019-01-31T17:24:07.247Z,3.00
2019-01-31T17:26:33.291Z,3.00
2019-01-31T17:28:59.367Z,3.00
2019-01-31T17:31:25.422Z,3.10
2019-01-31T17:33:51.464Z,3.10
2019-01-31T17:36:17.507Z,3.10
2019-01-31T17:38:43.557Z,3.10
2019-01-31T17:41:09.600Z,3.10
2019-01-31T17:43:35.641Z,3.10
2019-01-31T17:46:02.152Z,3.20
2019-01-31T17:48:28.580Z,3.20
2019-01-31T17:50:54.621Z,3.20
2019-01-31T17:53:20.672Z,3.20
2019-01-31T17:55:46.719Z,3.30
2019-01-31T17:58:12.763Z,3.30
2019-01-31T18:00:47.799Z,3.20
2019-01-31T18:03:13.939Z,3.20
2019-01-31T18:05:40.100Z,3.10
2019-01-31T18:08:09.179Z,3.10
2019-01-31T18:10:41.811Z,3.10
2019-01-31T18:13:07.872Z,3.10
2019-01-31T18:15:41.768Z,3.10
2019-01-31T18:18:01.879Z,3.10
2019-01-31T18:20:28.052Z,3.00
2019-01-31T18:22:54.092Z,3.00
2019-01-31T18:25:20.135Z,3.10
2019-01-31T18:27:46.184Z,3.00
2019-01-31T18:30:22.092Z,3.00
2019-01-31T18:32:48.425Z,3.00
2019-01-31T18:35:14.567Z,2.90
2019-01-31T18:37:40.619Z,2.90
2019-01-31T18:40:10.691Z,2.80
2019-01-31T18:42:37.024Z,2.80
2019-01-31T18:45:06.891Z,2.70
2019-01-31T18:47:32.950Z,2.70
2019-01-31T18:49:58.984Z,2.60
2019-01-31T18:52:25.303Z,2.50
2019-01-31T18:54:51.340Z,2.50
2019-01-31T18:57:17.391Z,2.40
2019-01-31T18:59:43.440Z,2.40
2019-01-31T19:02:09.808Z,2.40
2019-01-31T19:04:35.857Z,2.30
2019-01-31T19:07:02.004Z,2.30
2019-01-31T19:09:28.075Z,2.30
2019-01-31T19:11:54.415Z,2.30
2019-01-31T19:14:20.675Z,2.30
2019-01-31T19:16:46.952Z,2.30
2019-01-31T19:19:13.335Z,2.20
2019-01-31T19:21:39.886Z,2.20
2019-01-31T19:24:06.302Z,2.20
2019-01-31T19:26:32.577Z,2.10
2019-01-31T19:28:58.715Z,2.10
2019-01-31T19:31:24.768Z,2.10
2019-01-31T19:33:51.843Z,2.10
2019-01-31T19:36:18.364Z,2.10
2019-01-31T19:38:46.614Z,2.10
2019-01-31T19:41:12.801Z,2.10
2019-01-31T19:43:39.302Z,2.10
2019-01-31T19:46:15.816Z,2.10
2019-01-31T19:48:33.500Z,2.10
2019-01-31T19:50:59.556Z,2.10
2019-01-31T19:53:25.623Z,2.10
2019-01-31T19:55:51.651Z,2.10
2019-01-31T19:58:17.713Z,2.10
2019-01-31T20:00:43.764Z,2.20
2019-01-31T20:03:09.807Z,2.20
2019-01-31T20:05:36.089Z,2.20
2019-01-31T20:08:03.531Z,2.20
2019-01-31T20:10:30.376Z,2.20
2019-01-31T20:12:57.032Z,2.20
2019-01-31T20:15:23.951Z,2.20
2019-01-31T20:17:50.226Z,2.20
2019-01-31T20:20:19.467Z,2.10
2019-01-31T20:22:46.127Z,2.10
2019-01-31T20:25:12.471Z,2.10
2019-01-31T20:27:38.516Z,2.00
2019-01-31T20:30:08.180Z,2.10
2019-01-31T20:32:34.223Z,2.00
2019-01-31T20:35:00.272Z,2.00
2019-01-31T20:37:26.334Z,2.00
2019-01-31T20:39:52.368Z,2.00
2019-01-31T20:42:18.403Z,2.00
2019-01-31T20:44:44.523Z,1.90
2019-01-31T20:47:10.664Z,1.90
2019-01-31T20:49:36.703Z,1.90
2019-01-31T20:52:03.048Z,1.90
2019-01-31T20:54:29.182Z,1.90
2019-01-31T20:56:55.331Z,1.80
2019-01-31T20:59:21.384Z,1.90
2019-01-31T21:01:47.421Z,1.80
2019-01-31T21:04:13.555Z,1.80
2019-01-31T21:06:41.419Z,1.80
2019-01-31T21:09:08.076Z,1.80
2019-01-31T21:11:34.128Z,1.80
2019-01-31T21:14:00.189Z,1.80
2019-01-31T21:16:26.340Z,1.70
2019-01-31T21:18:52.385Z,1.70
2019-01-31T21:21:18.437Z,1.70
2019-01-31T21:23:44.484Z,1.70
2019-01-31T21:26:10.537Z,1.60
2019-01-31T21:28:36.594Z,1.60
2019-01-31T21:31:03.040Z,1.60
2019-01-31T21:33:29.077Z,1.60
2019-01-31T21:35:55.168Z,1.60
2019-01-31T21:38:21.203Z,1.60
2019-01-31T21:40:47.261Z,1.60
2019-01-31T21:43:13.292Z,1.60
2019-01-31T21:45:39.355Z,1.60
2019-01-31T21:48:05.696Z,1.60
2019-01-31T21:50:31.835Z,1.60
2019-01-31T21:52:58.000Z,1.60
2019-01-31T21:55:24.258Z,1.60
2019-01-31T21:57:50.600Z,1.60
2019-01-31T22:00:19.244Z,1.60
2019-01-31T22:02:45.816Z,1.60
2019-01-31T22:05:13.857Z,1.60
2019-01-31T22:07:39.912Z,1.60
2019-01-31T22:10:09.684Z,1.60
2019-01-31T22:12:35.735Z,1.60
2019-01-31T22:15:02.792Z,1.60
2019-01-31T22:17:29.123Z,1.60
2019-01-31T22:19:55.169Z,1.60
2019-01-31T22:22:21.228Z,1.70
2019-01-31T22:24:47.259Z,1.70
2019-01-31T22:27:13.304Z,1.80
2019-01-31T22:29:39.368Z,1.80
2019-01-31T22:32:05.415Z,1.80
2019-01-31T22:34:31.793Z,1.90
2019-01-31T22:36:57.852Z,1.90
2019-01-31T22:39:23.887Z,2.00
2019-01-31T22:41:49.941Z,2.00
2019-01-31T22:44:16.008Z,2.10
2019-01-31T22:46:42.039Z,2.10
2019-01-31T22:49:09.216Z,2.10
2019-01-31T22:51:37.474Z,2.20
2019-01-31T22:54:03.603Z,2.20
2019-01-31T22:56:29.996Z,2.20
2019-01-31T22:58:56.041Z,2.30
2019-01-31T23:01:24.791Z,2.30
2019-01-31T23:03:51.140Z,2.30
2019-01-31T23:06:17.208Z,2.30
2019-01-31T23:08:43.255Z,2.30
2019-01-31T23:11:09.302Z,2.30
2019-01-31T23:13:35.696Z,2.30
2019-01-31T23:16:01.751Z,2.40
2019-01-31T23:18:28.147Z,2.40
2019-01-31T23:20:54.211Z,2.40
2019-01-31T23:23:20.604Z,2.40
2019-01-31T23:25:46.936Z,2.40
2019-01-31T23:28:12.979Z,2.40
2019-01-31T23:30:39.037Z,2.40
2019-01-31T23:33:05.184Z,2.50
2019-01-31T23:35:31.223Z,2.50
2019-01-31T23:37:57.287Z,2.50
2019-01-31T23:40:23.334Z,2.50
2019-01-31T23:42:49.376Z,2.60
2019-01-31T23:45:17.887Z,2.60
2019-01-31T23:47:49.064Z,2.60
2019-01-31T23:50:12.181Z,2.60
2019-01-31T23:52:38.359Z,2.60
2019-01-31T23:55:14.222Z,2.70
2019-01-31T23:57:40.277Z,2.70
